Time;durP1;ratioP1;P1;durP2;ratioP2;P2;SDS_P1;SDS_P2;PMS_P1;PMS_P2;Temp;Humidity;BMP_temperature;BMP_pressure;BME280_temperature;BME280_humidity;BME280_pressure;Samples;Min_cycle;Max_cycle;Signal;HPM_P1;HPM_P2
2023/07/16 00:02:04;;;;;;;33.67;18.67;;;;;;;20.47;100.00;92725.56;4786653;29;20042;-75
2023/07/16 00:04:30;;;;;;;34.85;19.05;;;;;;;20.42;100.00;92733.78;4785611;29;20043;-76
2023/07/16 00:06:56;;;;;;;38.33;18.60;;;;;;;20.40;100.00;92725.38;4788369;29;20031;-76
2023/07/16 00:09:21;;;;;;;41.08;18.02;;;;;;;20.36;100.00;92729.84;4787059;29;20046;-76
2023/07/16 00:11:47;;;;;;;42.15;18.98;;;;;;;20.33;100.00;92730.50;4787464;29;20106;-76
2023/07/16 00:14:13;;;;;;;36.67;18.63;;;;;;;20.30;100.00;92728.53;4786568;29;20043;-77
2023/07/16 00:16:38;;;;;;;36.15;17.70;;;;;;;20.28;100.00;92725.44;4791851;29;20786;-76
2023/07/16 00:19:04;;;;;;;39.15;17.40;;;;;;;20.24;100.00;92728.03;4785729;29;20038;-75
2023/07/16 00:21:30;;;;;;;41.72;18.08;;;;;;;20.24;100.00;92732.53;4785800;29;20046;-76
2023/07/16 00:23:55;;;;;;;34.72;18.48;;;;;;;20.20;100.00;92716.53;4785820;29;20050;-76
2023/07/16 00:26:21;;;;;;;37.70;18.58;;;;;;;20.20;100.00;92716.53;4790253;29;20077;-76
2023/07/16 00:28:47;;;;;;;40.03;18.70;;;;;;;20.17;100.00;92712.66;4792521;29;20174;-76
2023/07/16 00:31:13;;;;;;;37.22;18.80;;;;;;;20.17;100.00;92711.88;4782229;29;21424;-75
2023/07/16 00:33:38;;;;;;;35.17;18.42;;;;;;;20.15;100.00;92708.78;4784161;29;20038;-76
2023/07/16 00:36:04;;;;;;;33.38;17.45;;;;;;;20.15;100.00;92709.56;4782218;29;20497;-75
2023/07/16 00:38:30;;;;;;;36.22;18.38;;;;;;;20.16;100.00;92716.41;4788730;29;20046;-77
2023/07/16 00:40:56;;;;;;;35.85;18.95;;;;;;;20.15;100.00;92709.56;4785579;29;20502;-76
2023/07/16 00:43:22;;;;;;;33.13;17.40;;;;;;;20.15;100.00;92706.91;4788731;29;20130;-77
2023/07/16 00:45:48;;;;;;;34.72;18.95;;;;;;;20.16;100.00;92711.09;4788313;29;20562;-76
2023/07/16 00:48:14;;;;;;;29.42;17.90;;;;;;;20.15;100.00;92704.25;4788059;29;20034;-76
2023/07/16 00:50:40;;;;;;;37.88;17.85;;;;;;;20.16;100.00;92705.78;4787281;29;20560;-77
2023/07/16 00:53:07;;;;;;;37.20;18.20;;;;;;;20.17;100.00;92706.56;4798720;29;20529;-76
2023/07/16 00:55:34;;;;;;;37.63;18.50;;;;;;;20.16;100.00;92707.69;4785916;29;20050;-76
2023/07/16 00:58:04;;;;;;;33.42;17.85;;;;;;;20.16;100.00;92707.69;4794765;29;20059;-76
2023/07/16 01:00:40;;;;;;;42.92;17.98;;;;;;;20.17;100.00;92704.69;4785459;29;21533;-76
2023/07/16 01:03:09;;;;;;;35.05;19.00;;;;;;;20.20;100.00;92711.19;4784830;29;20123;-76
2023/07/16 01:05:40;;;;;;;33.30;17.80;;;;;;;20.21;100.00;92706.66;4784289;29;20046;-76
2023/07/16 01:08:09;;;;;;;33.67;18.35;;;;;;;20.22;100.00;92705.53;4784476;29;20104;-76
2023/07/16 01:10:36;;;;;;;37.97;19.08;;;;;;;20.22;100.00;92692.25;4791006;29;20086;-76
2023/07/16 01:13:02;;;;;;;35.22;17.60;;;;;;;20.22;100.00;92694.91;4783685;29;20046;-76
2023/07/16 01:15:28;;;;;;;33.47;17.83;;;;;;;20.22;100.00;92693.03;4783354;29;20039;-76
2023/07/16 01:17:54;;;;;;;35.33;18.02;;;;;;;20.22;100.00;92692.25;4786441;29;20062;-76
2023/07/16 01:20:19;;;;;;;36.35;17.88;;;;;;;20.23;100.00;92689.25;4784105;29;20047;-74
2023/07/16 01:23:05;;;;;;;30.15;17.00;;;;;;;20.24;100.00;92695.34;4785467;29;20039;-74
2023/07/16 01:25:48;;;;;;;40.72;18.52;;;;;;;20.24;100.00;92693.47;4782865;29;20592;-76
2023/07/16 01:28:37;;;;;;;36.22;19.65;;;;;;;20.26;100.00;92687.78;4791323;29;20569;-76
2023/07/16 01:31:03;;;;;;;35.80;18.20;;;;;;;20.27;100.00;92678.72;4788893;29;20095;-76
2023/07/16 01:33:29;;;;;;;40.25;18.92;;;;;;;20.28;100.00;92674.94;4784699;29;20034;-74
2023/07/16 01:35:56;;;;;;;32.97;17.50;;;;;;;20.28;100.00;92680.25;4784729;29;20050;-76
2023/07/16 01:38:23;;;;;;;36.67;18.15;;;;;;;20.28;100.00;92659.00;4785623;29;20051;-76
2023/07/16 01:40:48;;;;;;;37.00;19.35;;;;;;;20.26;100.00;92656.66;4785219;29;20070;-76
2023/07/16 01:43:14;;;;;;;37.00;17.77;;;;;;;20.25;100.00;92660.44;4787952;29;20509;-77
2023/07/16 01:45:40;;;;;;;33.60;18.77;;;;;;;20.24;100.00;92658.13;4784876;29;20051;-74
2023/07/16 01:48:32;;;;;;;36.63;19.35;;;;;;;20.23;100.00;92654.69;4780485;29;20067;-76
2023/07/16 01:50:58;;;;;;;35.70;18.55;;;;;;;20.20;100.00;92651.94;4800062;29;20051;-76
2023/07/16 01:53:24;;;;;;;37.22;17.70;;;;;;;20.16;100.00;92644.66;4786930;29;20123;-75
2023/07/16 01:55:50;;;;;;;33.03;18.38;;;;;;;20.13;100.00;92648.00;4780185;29;20074;-76
2023/07/16 01:58:15;;;;;;;35.45;18.95;;;;;;;20.11;100.00;92660.09;4796264;29;20620;-76
2023/07/16 02:00:41;;;;;;;32.58;18.27;;;;;;;20.10;100.00;92661.19;4785793;29;20621;-76
2023/07/16 02:03:07;;;;;;;38.10;17.95;;;;;;;20.09;100.00;92663.09;4788485;29;20050;-76
2023/07/16 02:05:32;;;;;;;33.65;18.27;;;;;;;20.08;100.00;92658.88;4788476;29;20509;-75
2023/07/16 02:07:58;;;;;;;32.88;17.98;;;;;;;20.08;100.00;92656.22;4784023;29;20047;-76
2023/07/16 02:10:23;;;;;;;39.05;18.27;;;;;;;20.08;100.00;92661.53;4787708;29;20530;-74
2023/07/16 02:12:49;;;;;;;33.63;18.50;;;;;;;20.09;100.00;92652.47;4800427;29;20039;-77
2023/07/16 02:15:15;;;;;;;41.45;19.83;;;;;;;20.09;100.00;92657.78;4786851;29;20096;-77
2023/07/16 02:17:42;;;;;;;38.22;19.88;;;;;;;20.13;100.00;92644.59;4788168;29;20038;-76
2023/07/16 02:20:10;;;;;;;32.17;17.98;;;;;;;20.12;100.00;92643.78;4790087;29;20043;-75
2023/07/16 02:22:38;;;;;;;31.88;18.15;;;;;;;20.12;100.00;92645.69;4788125;29;20104;-76
2023/07/16 02:25:04;;;;;;;37.33;17.63;;;;;;;20.09;100.00;92636.50;4792221;29;20397;-77
2023/07/16 02:27:29;;;;;;;32.95;18.58;;;;;;;20.09;100.00;92628.53;4788214;29;21365;-76
2023/07/16 02:29:55;;;;;;;42.42;19.50;;;;;;;20.08;100.00;92631.53;4790890;29;20050;-76
2023/07/16 02:32:21;;;;;;;36.67;17.45;;;;;;;20.04;100.00;92634.13;4783526;29;20046;-76
2023/07/16 02:34:47;;;;;;;35.35;17.00;;;;;;;20.00;100.00;92651.84;4791786;29;20482;-76
2023/07/16 02:37:12;;;;;;;35.97;18.40;;;;;;;20.00;100.00;92648.44;4787183;29;20051;-76
2023/07/16 02:39:39;;;;;;;32.65;17.92;;;;;;;19.98;100.00;92635.47;4788195;29;20124;-75
2023/07/16 02:42:05;;;;;;;33.85;17.73;;;;;;;19.99;100.00;92642.31;4789371;29;20461;-77
2023/07/16 02:44:30;;;;;;;35.78;18.65;;;;;;;19.99;100.00;92644.22;4793995;29;20137;-77
2023/07/16 02:46:56;;;;;;;31.98;18.25;;;;;;;19.98;100.00;92640.78;4786425;29;20606;-76
2023/07/16 02:49:22;;;;;;;39.88;18.83;;;;;;;19.99;100.00;92650.28;4782672;29;20051;-76
2023/07/16 02:51:47;;;;;;;40.65;18.60;;;;;;;20.00;100.00;92651.09;4788217;29;20055;-75
2023/07/16 02:54:13;;;;;;;40.17;18.40;;;;;;;20.01;100.00;92645.41;4783711;29;20051;-76
2023/07/16 02:56:39;;;;;;;36.17;18.52;;;;;;;20.02;100.00;92646.97;4787526;29;20049;-76
2023/07/16 02:59:04;;;;;;;37.45;18.80;;;;;;;20.03;100.00;92643.19;4781082;29;20097;-76
2023/07/16 03:01:30;;;;;;;29.38;17.70;;;;;;;20.03;100.00;92635.22;4773402;29;20112;-77
2023/07/16 03:03:56;;;;;;;37.90;18.95;;;;;;;20.05;100.00;92645.50;4785955;29;20137;-76
2023/07/16 03:06:22;;;;;;;41.35;19.13;;;;;;;20.04;100.00;92650.06;4800627;29;20573;-76
2023/07/16 03:08:50;;;;;;;34.65;18.40;;;;;;;20.06;100.00;92650.50;4786456;29;20047;-75
2023/07/16 03:11:17;;;;;;;40.63;18.50;;;;;;;20.06;100.00;92650.50;4783388;29;20047;-76
2023/07/16 03:13:42;;;;;;;40.33;18.58;;;;;;;20.06;100.00;92639.88;4789602;29;20458;-75
2023/07/16 03:16:08;;;;;;;33.20;17.60;;;;;;;20.07;100.00;92653.91;4782703;29;20167;-75
2023/07/16 03:18:34;;;;;;;34.83;18.23;;;;;;;20.07;100.00;92638.75;4788708;29;20418;-77
2023/07/16 03:21:00;;;;;;;36.42;19.33;;;;;;;20.07;100.00;92638.75;4785692;29;20049;-76
2023/07/16 03:23:25;;;;;;;31.65;18.00;;;;;;;20.08;100.00;92639.50;4791536;29;20099;-76
2023/07/16 03:25:51;;;;;;;45.83;19.50;;;;;;;20.07;100.00;92633.44;4790305;29;20608;-77
2023/07/16 03:28:17;;;;;;;37.53;19.17;;;;;;;20.07;100.00;92637.97;4794019;29;20038;-76
2023/07/16 03:30:48;;;;;;;38.38;19.42;;;;;;;20.05;100.00;92633.00;4794982;29;20107;-77
2023/07/16 03:33:14;;;;;;;36.90;18.73;;;;;;;20.03;100.00;92643.19;4791700;29;20047;-76
2023/07/16 03:35:44;;;;;;;35.80;18.13;;;;;;;20.01;100.00;92645.41;4793544;29;20391;-76
2023/07/16 03:38:11;;;;;;;39.58;18.42;;;;;;;19.98;100.00;92646.09;4805401;29;20612;-76
2023/07/16 03:40:36;;;;;;;38.50;18.70;;;;;;;19.94;100.00;92650.53;4788389;29;20067;-76
2023/07/16 03:43:02;;;;;;;36.20;17.90;;;;;;;19.90;100.00;92647.00;4792507;29;20047;-76
2023/07/16 03:45:28;;;;;;;38.67;19.30;;;;;;;19.90;100.00;92644.34;4806032;29;20039;-76
2023/07/16 03:47:53;;;;;;;40.08;20.45;;;;;;;19.89;100.00;92643.59;4785574;29;20046;-75
2023/07/16 03:50:19;;;;;;;40.33;19.98;;;;;;;19.88;100.00;92647.38;4781295;29;20146;-74
2023/07/16 03:52:45;;;;;;;35.80;19.27;;;;;;;19.86;100.00;92648.81;4799141;29;20035;-77
2023/07/16 03:55:10;;;;;;;45.38;19.92;;;;;;;19.83;100.00;92650.25;4786725;29;20700;-76
2023/07/16 03:57:36;;;;;;;47.03;18.55;;;;;;;19.82;100.00;92647.97;4786200;29;20093;-75
2023/07/16 04:00:04;;;;;;;41.45;20.33;;;;;;;19.80;100.00;92652.84;4786130;29;20082;-74
2023/07/16 04:02:39;;;;;;;37.70;19.92;;;;;;;19.79;100.00;92653.94;4786545;29;20057;-77
2023/07/16 04:05:06;;;;;;;40.40;20.17;;;;;;;19.81;100.00;92657.03;4799070;29;20053;-75
2023/07/16 04:07:32;;;;;;;43.63;21.60;;;;;;;19.84;100.00;92659.03;4794616;29;20145;-76
2023/07/16 04:09:57;;;;;;;42.80;20.58;;;;;;;19.84;100.00;92646.50;4789517;29;20054;-76
2023/07/16 04:12:23;;;;;;;44.55;20.83;;;;;;;19.85;100.00;92647.28;4784900;29;20062;-76
2023/07/16 04:14:48;;;;;;;39.83;19.52;;;;;;;19.88;100.00;92642.06;4785334;29;20046;-76
2023/07/16 04:17:14;;;;;;;46.47;20.42;;;;;;;19.88;100.00;92649.22;4785395;29;20046;-76
2023/07/16 04:19:39;;;;;;;36.22;19.23;;;;;;;19.87;100.00;92653.78;4790481;29;20129;-76
2023/07/16 04:22:05;;;;;;;37.17;19.55;;;;;;;19.89;100.00;92664.84;4792990;29;20402;-77
2023/07/16 04:24:31;;;;;;;35.03;19.27;;;;;;;19.93;100.00;92662.28;4792028;29;20138;-77
2023/07/16 04:26:58;;;;;;;47.55;19.05;;;;;;;19.95;100.00;92663.50;4791408;29;20515;-76
2023/07/16 04:29:24;;;;;;;35.88;19.38;;;;;;;19.98;100.00;92661.28;4786477;29;20041;-76
2023/07/16 04:31:50;;;;;;;37.95;20.35;;;;;;;20.00;100.00;92665.13;4789562;29;20528;-76
2023/07/16 04:34:16;;;;;;;39.95;20.45;;;;;;;20.00;100.00;92670.44;4785544;29;20067;-76
2023/07/16 04:36:43;;;;;;;41.63;19.08;;;;;;;20.02;100.00;92670.88;4789521;29;20414;-76
2023/07/16 04:39:08;;;;;;;36.42;20.35;;;;;;;20.04;100.00;92673.97;4794195;29;20502;-77
2023/07/16 04:41:34;;;;;;;37.08;19.77;;;;;;;20.07;100.00;92675.94;4790355;29;20058;-76
2023/07/16 04:43:59;;;;;;;39.60;19.60;;;;;;;20.10;100.00;92672.59;4788975;29;20081;-75
2023/07/16 04:46:25;;;;;;;42.13;19.60;;;;;;;20.14;100.00;92678.78;4783514;29;20437;-76
2023/07/16 04:48:51;;;;;;;32.25;18.67;;;;;;;20.17;100.00;92680.78;4785367;29;20038;-77
2023/07/16 04:51:16;;;;;;;46.03;19.42;;;;;;;20.17;100.00;92677.31;4787981;29;20129;-76
2023/07/16 04:53:42;;;;;;;40.95;20.52;;;;;;;20.17;100.00;92680.78;4796384;29;20038;-76
2023/07/16 04:56:15;;;;;;;33.35;19.52;;;;;;;20.21;100.00;92682.72;4786184;29;20512;-77
2023/07/16 04:58:41;;;;;;;37.78;20.20;;;;;;;20.24;100.00;92680.19;4785963;29;20566;-76
2023/07/16 05:01:09;;;;;;;39.08;18.83;;;;;;;20.31;100.00;92690.97;4787360;29;20066;-75
2023/07/16 05:03:35;;;;;;;42.10;19.40;;;;;;;20.36;100.00;92682.75;4793297;29;20111;-74
2023/07/16 05:06:01;;;;;;;39.95;20.92;;;;;;;20.43;100.00;92689.38;4795899;29;20133;-76
2023/07/16 05:08:26;;;;;;;34.63;20.67;;;;;;;20.50;100.00;92689.53;4782113;29;20043;-76
2023/07/16 05:10:52;;;;;;;41.78;21.13;;;;;;;20.58;100.00;92694.72;4766137;29;20103;-75
2023/07/16 05:13:17;;;;;;;35.08;19.33;;;;;;;20.68;100.00;92703.28;4790563;29;20091;-75
2023/07/16 05:15:44;;;;;;;36.78;19.25;;;;;;;20.75;100.00;92703.47;4789067;29;20051;-76
2023/07/16 05:18:09;;;;;;;38.13;19.20;;;;;;;20.83;100.00;92702.53;4785579;29;20030;-75
2023/07/16 05:20:35;;;;;;;38.63;18.83;;;;;;;20.88;100.00;92707.56;4780985;29;20070;-75
2023/07/16 05:23:01;;;;;;;36.42;19.60;;;;;;;20.93;100.00;92704.66;4796215;29;20386;-76
2023/07/16 05:25:27;;;;;;;37.58;18.23;;;;;;;20.97;100.00;92700.19;4788382;29;21504;-76
2023/07/16 05:27:52;;;;;;;39.10;19.33;;;;;;;21.00;100.00;92710.13;4789506;29;20042;-76
2023/07/16 05:30:18;;;;;;;42.30;20.20;;;;;;;21.05;100.00;92705.66;4785461;29;20319;-76
2023/07/16 05:32:44;;;;;;;44.92;20.20;;;;;;;21.11;100.00;92709.63;4790707;29;20095;-76
2023/07/16 05:35:09;;;;;;;38.53;19.80;;;;;;;21.19;100.00;92701.44;4775929;29;20167;-77
2023/07/16 05:37:35;;;;;;;35.50;19.75;;;;;;;21.30;100.00;92712.34;4786868;29;20034;-75
2023/07/16 05:40:01;;;;;;;39.92;19.58;;;;;;;21.41;100.00;92708.03;4793115;29;20512;-78
2023/07/16 05:42:26;;;;;;;43.45;19.40;;;;;;;21.53;100.00;92711.69;4795379;29;20116;-77
2023/07/16 05:44:52;;;;;;;40.17;20.27;;;;;;;21.65;100.00;92714.22;4789504;29;20125;-77
2023/07/16 05:47:18;;;;;;;41.53;20.05;;;;;;;21.83;100.00;92714.59;4789650;29;20046;-76
2023/07/16 05:49:43;;;;;;;41.72;19.90;;;;;;;22.00;100.00;92714.16;4787307;29;21266;-75
2023/07/16 05:52:09;;;;;;;36.42;19.70;;;;;;;22.17;100.00;92710.28;4774531;29;20045;-76
2023/07/16 05:54:35;;;;;;;33.45;19.48;;;;;;;22.32;100.00;92716.69;4791637;29;20126;-77
2023/07/16 05:57:00;;;;;;;42.28;19.42;;;;;;;22.56;100.00;92720.94;4792328;29;20142;-76
2023/07/16 05:59:26;;;;;;;38.17;19.95;;;;;;;22.80;100.00;92719.00;4783390;29;20663;-76
2023/07/16 06:01:52;;;;;;;39.05;18.70;;;;;;;23.07;100.00;92727.84;4784030;29;20059;-75
2023/07/16 06:04:17;;;;;;;32.65;18.95;;;;;;;23.72;100.00;92728.78;4788076;29;20133;-77
2023/07/16 06:06:43;;;;;;;34.60;18.17;;;;;;;24.34;100.00;92725.69;4800045;29;20051;-76
2023/07/16 06:09:09;;;;;;;38.13;18.02;;;;;;;24.70;100.00;92732.97;4789407;29;20050;-77
2023/07/16 06:11:34;;;;;;;32.70;18.50;;;;;;;24.86;100.00;92726.63;4806769;29;20057;-77
2023/07/16 06:14:00;;;;;;;31.85;17.90;;;;;;;25.18;100.00;92724.19;4766032;29;20061;-77
2023/07/16 06:16:26;;;;;;;35.00;18.77;;;;;;;25.35;100.00;92728.16;4795637;29;20153;-78
2023/07/16 06:18:51;;;;;;;37.58;17.60;;;;;;;25.26;100.00;92722.34;4793740;29;20051;-81
2023/07/16 06:21:17;;;;;;;32.45;18.20;;;;;;;25.16;100.00;92720.34;4783853;29;20043;-80
2023/07/16 06:23:43;;;;;;;38.20;17.52;;;;;;;25.42;100.00;92728.22;4805161;29;20078;-79
2023/07/16 06:26:09;;;;;;;34.97;18.23;;;;;;;25.50;100.00;92732.47;4799988;29;20046;-81
2023/07/16 06:28:34;;;;;;;41.30;18.40;;;;;;;25.61;100.00;92729.09;4793626;29;20042;-80
2023/07/16 06:31:00;;;;;;;32.35;18.65;;;;;;;25.66;100.00;92732.16;4792742;29;20066;-80
2023/07/16 06:33:27;;;;;;;35.22;18.20;;;;;;;25.37;100.00;92738.50;4793227;29;20062;-80
2023/07/16 06:35:52;;;;;;;32.22;17.55;;;;;;;25.18;100.00;92737.59;4784967;29;20078;-80
2023/07/16 06:38:18;;;;;;;37.30;17.60;;;;;;;24.77;100.00;92736.84;4789909;29;20065;-80
2023/07/16 06:40:52;;;;;;;34.05;17.63;;;;;;;24.57;100.00;92739.72;4795423;29;20051;-79
2023/07/16 06:43:18;;;;;;;34.60;19.60;;;;;;;24.27;100.00;92742.44;4797266;29;20049;-79
2023/07/16 06:45:43;;;;;;;38.20;18.13;;;;;;;24.23;100.00;92750.44;4794368;29;20512;-79
2023/07/16 06:48:09;;;;;;;38.58;18.65;;;;;;;24.52;100.00;92737.41;4784826;29;20138;-79
2023/07/16 06:50:35;;;;;;;37.17;18.52;;;;;;;24.76;100.00;92746.03;4787365;29;20062;-79
2023/07/16 06:53:01;;;;;;;38.85;16.73;;;;;;;24.77;100.00;92751.00;4803549;29;20047;-80
2023/07/16 06:55:26;;;;;;;38.45;17.67;;;;;;;25.03;100.00;92743.97;4805334;29;20035;-81
2023/07/16 06:57:52;;;;;;;31.40;15.52;;;;;;;25.12;100.00;92747.09;4802058;29;20051;-80
2023/07/16 07:00:18;;;;;;;30.52;17.95;;;;;;;24.96;100.00;92744.66;4802098;29;20047;-79
2023/07/16 07:02:44;;;;;;;35.75;19.67;;;;;;;24.99;100.00;92746.59;4805348;29;20047;-79
2023/07/16 07:05:09;;;;;;;35.90;18.10;;;;;;;24.98;100.00;92749.66;4805666;29;20107;-80
2023/07/16 07:07:35;;;;;;;35.20;18.63;;;;;;;25.12;100.00;92750.53;4808126;29;20102;-80
2023/07/16 07:10:01;;;;;;;36.88;18.00;;;;;;;25.09;100.00;92743.25;4808225;29;20043;-80
2023/07/16 07:12:27;;;;;;;34.83;18.48;;;;;;;25.01;100.00;92740.88;4807469;29;20037;-80
2023/07/16 07:14:52;;;;;;;41.15;20.88;;;;;;;24.73;100.00;92752.88;4801728;29;20494;-79
2023/07/16 07:17:18;;;;;;;37.20;19.45;;;;;;;24.67;100.00;92744.41;4804694;29;20118;-78
2023/07/16 07:19:44;;;;;;;48.53;21.23;;;;;;;24.80;100.00;92750.28;4810307;29;20239;-78
2023/07/16 07:22:10;;;;;;;46.30;20.17;;;;;;;24.61;100.00;92745.91;4803692;29;20544;-79
2023/07/16 07:24:35;;;;;;;30.08;18.23;;;;;;;24.95;100.00;92751.19;4807440;29;20042;-79
2023/07/16 07:27:02;;;;;;;38.10;18.95;;;;;;;25.24;100.00;92752.19;4803207;29;20050;-80
2023/07/16 07:29:27;;;;;;;41.78;18.88;;;;;;;24.96;100.00;92750.03;4804628;29;20170;-80
2023/07/16 07:31:53;;;;;;;38.80;19.10;;;;;;;24.60;100.00;92755.03;4806128;29;20312;-79
2023/07/16 07:34:19;;;;;;;39.85;20.33;;;;;;;24.17;100.00;92754.56;4804604;29;20156;-80
2023/07/16 07:36:45;;;;;;;34.67;20.70;;;;;;;23.98;100.00;92757.38;4801731;29;20050;-79
2023/07/16 07:39:13;;;;;;;39.90;21.05;;;;;;;24.06;100.00;92756.34;4808450;29;20083;-80
2023/07/16 07:41:39;;;;;;;35.85;19.55;;;;;;;24.37;100.00;92759.75;4800170;29;20554;-82
2023/07/16 07:44:04;;;;;;;42.90;21.15;;;;;;;24.35;100.00;92754.75;4810434;29;20054;-82
2023/07/16 07:46:30;;;;;;;40.75;22.10;;;;;;;24.38;100.00;92756.69;4810504;29;20050;-82
2023/07/16 07:49:01;;;;;;;42.78;21.55;;;;;;;24.41;100.00;92757.88;4805339;29;20117;-82
2023/07/16 07:51:27;;;;;;;35.08;20.38;;;;;;;24.52;100.00;92748.09;4796893;29;20130;-82
2023/07/16 07:53:53;;;;;;;32.53;21.13;;;;;;;24.37;100.00;92754.41;4786392;29;20047;-82
2023/07/16 07:56:18;;;;;;;45.83;21.10;;;;;;;24.34;100.00;92755.13;4804973;29;20042;-82
2023/07/16 07:58:44;;;;;;;42.15;22.10;;;;;;;24.43;100.00;92766.28;4787690;29;20545;-82
2023/07/16 08:01:10;;;;;;;43.40;20.92;;;;;;;24.40;100.00;92767.03;4799381;29;20096;-79
2023/07/16 08:03:35;;;;;;;40.95;20.48;;;;;;;24.59;100.00;92774.94;4802889;29;20565;-80
2023/07/16 08:06:01;;;;;;;41.33;19.98;;;;;;;24.62;100.00;92768.84;4801916;29;20435;-80
2023/07/16 08:08:27;;;;;;;42.60;20.63;;;;;;;24.67;100.00;92763.13;4799650;29;20498;-79
2023/07/16 08:10:53;;;;;;;41.95;20.33;;;;;;;24.98;100.00;92763.81;4801427;29;20027;-79
2023/07/16 08:13:19;;;;;;;35.80;20.15;;;;;;;24.88;100.00;92764.47;4797047;29;20516;-80
2023/07/16 08:15:52;;;;;;;44.03;21.58;;;;;;;24.98;100.00;92763.81;4794851;29;20059;-82
2023/07/16 08:18:18;;;;;;;36.20;20.05;;;;;;;24.76;100.00;92762.09;4798038;29;20072;-77
2023/07/16 08:20:44;;;;;;;40.70;18.65;;;;;;;24.85;100.00;92763.31;4797141;29;20083;-78
2023/07/16 08:23:10;;;;;;;41.25;17.88;;;;;;;24.98;100.00;92766.50;4800765;29;20043;-78
2023/07/16 08:25:36;;;;;;;36.97;20.35;;;;;;;25.18;100.00;92772.41;4796429;29;20429;-78
2023/07/16 08:28:02;;;;;;;41.33;21.48;;;;;;;25.27;100.00;92772.13;4782926;29;20070;-79
2023/07/16 08:30:28;;;;;;;37.97;20.95;;;;;;;25.22;100.00;92775.13;4797132;29;20104;-79
2023/07/16 08:32:57;;;;;;;36.33;20.48;;;;;;;25.27;100.00;92774.78;4800567;29;20066;-78
2023/07/16 08:35:22;;;;;;;42.85;21.52;;;;;;;25.24;100.00;92781.66;4797098;29;20031;-78
2023/07/16 08:37:48;;;;;;;39.80;21.58;;;;;;;25.19;100.00;92773.97;4798063;29;20042;-78
2023/07/16 08:40:14;;;;;;;36.92;21.30;;;;;;;25.25;100.00;92779.75;4799667;29;20035;-77
2023/07/16 08:42:40;;;;;;;39.22;20.65;;;;;;;25.34;100.00;92778.28;4801823;29;20070;-79
2023/07/16 08:45:18;;;;;;;45.88;21.45;;;;;;;25.39;100.00;92779.09;4801762;29;20035;-78
2023/07/16 08:47:44;;;;;;;36.08;19.48;;;;;;;25.48;100.00;92785.66;4798515;29;20045;-77
2023/07/16 08:50:11;;;;;;;33.70;19.17;;;;;;;25.59;100.00;92782.28;4798535;29;20032;-77
2023/07/16 08:52:37;;;;;;;31.38;18.92;;;;;;;25.58;100.00;92778.06;4797675;29;20039;-77
2023/07/16 08:55:03;;;;;;;40.20;19.00;;;;;;;25.43;100.00;92777.97;4797531;29;20401;-78
2023/07/16 08:57:30;;;;;;;34.70;18.88;;;;;;;25.57;100.00;92774.63;4801479;29;20059;-78
2023/07/16 08:59:57;;;;;;;34.45;19.23;;;;;;;25.64;100.00;92780.03;4794842;29;20552;-78
2023/07/16 09:02:23;;;;;;;39.75;19.33;;;;;;;25.83;100.00;92781.69;4802858;29;20177;-78
2023/07/16 09:04:49;;;;;;;34.83;17.90;;;;;;;25.68;100.00;92774.69;4798157;29;20039;-76
2023/07/16 09:07:15;;;;;;;34.63;18.50;;;;;;;25.49;100.00;92771.13;4806127;29;20130;-78
2023/07/16 09:09:41;;;;;;;39.22;19.30;;;;;;;25.68;100.00;92772.00;4802077;29;20035;-77
2023/07/16 09:12:12;;;;;;;31.55;17.20;;;;;;;25.67;100.00;92779.28;4803880;29;20043;-78
2023/07/16 09:14:37;;;;;;;39.03;18.25;;;;;;;25.74;100.00;92783.94;4806692;29;20052;-77
2023/07/16 09:17:03;;;;;;;41.17;20.27;;;;;;;25.89;100.00;92787.47;4804299;29;20031;-77
2023/07/16 09:19:32;;;;;;;35.53;17.05;;;;;;;26.04;100.00;92782.97;4800121;29;20051;-77
2023/07/16 09:21:59;;;;;;;29.08;15.38;;;;;;;26.09;100.00;92786.03;4791460;29;20105;-77
2023/07/16 09:24:25;;;;;;;33.22;18.65;;;;;;;26.15;100.00;92794.50;4793880;29;20046;-77
2023/07/16 09:27:00;;;;;;;35.42;17.95;;;;;;;26.13;100.00;92802.16;4796639;29;20054;-77
2023/07/16 09:29:27;;;;;;;32.17;17.02;;;;;;;26.03;100.00;92808.22;4798385;29;20041;-77
2023/07/16 09:31:55;;;;;;;43.47;18.42;;;;;;;26.34;100.00;92791.53;4793823;29;20482;-77
2023/07/16 09:34:21;;;;;;;37.40;18.45;;;;;;;26.45;100.00;92806.91;4798738;29;20039;-77
2023/07/16 09:36:49;;;;;;;32.80;19.25;;;;;;;26.41;100.00;92803.41;4799056;29;20034;-77
2023/07/16 09:39:19;;;;;;;30.95;16.52;;;;;;;26.38;100.00;92804.94;4791086;29;20501;-82
2023/07/16 09:41:49;;;;;;;31.23;14.65;;;;;;;26.60;100.00;92803.16;4804936;29;20046;-78
2023/07/16 09:44:16;;;;;;;36.83;16.20;;;;;;;26.65;100.00;92812.75;4792377;29;20115;-78
2023/07/16 09:46:42;;;;;;;32.22;18.40;;;;;;;26.58;100.00;92808.88;4799626;29;20539;-79
2023/07/16 09:49:08;;;;;;;31.40;17.40;;;;;;;26.68;100.00;92810.09;4810464;29;20110;-79
2023/07/16 09:51:36;;;;;;;33.13;16.13;;;;;;;26.99;100.00;92815.88;4803028;29;20045;-80
2023/07/16 09:54:02;;;;;;;31.42;14.02;;;;;;;27.29;100.00;92814.78;4811263;29;20054;-78
2023/07/16 09:56:39;;;;;;;28.95;14.95;;;;;;;27.54;100.00;92810.22;4800147;29;20031;-79
2023/07/16 09:59:20;;;;;;;37.42;14.13;;;;;;;27.38;99.38;92815.19;4803241;29;20154;-79
2023/07/16 10:01:46;;;;;;;22.65;13.82;;;;;;;27.15;100.00;92810.91;4805041;29;20035;-78
2023/07/16 10:04:19;;;;;;;22.38;12.48;;;;;;;27.05;100.00;92811.69;4806338;29;20079;-78
2023/07/16 10:07:01;;;;;;;24.48;12.90;;;;;;;27.50;100.00;92808.69;4805440;29;20509;-78
2023/07/16 10:09:52;;;;;;;26.98;12.65;;;;;;;27.79;94.76;92809.41;4801209;29;20490;-80
2023/07/16 10:12:19;;;;;;;25.50;12.48;;;;;;;27.88;96.28;92809.06;4802677;29;20625;-79
2023/07/16 10:14:47;;;;;;;27.85;12.75;;;;;;;27.97;85.84;92799.41;4809030;29;20034;-79
2023/07/16 10:17:32;;;;;;;27.67;12.90;;;;;;;27.94;85.50;92794.78;4805546;29;20046;-79
2023/07/16 10:20:12;;;;;;;32.05;13.48;;;;;;;28.27;85.78;92803.56;4804732;29;20501;-78
2023/07/16 10:22:43;;;;;;;24.65;11.90;;;;;;;28.62;88.39;92799.22;4801959;29;20054;-79
2023/07/16 10:25:22;;;;;;;23.83;13.50;;;;;;;28.38;87.03;92803.53;4812997;29;20103;-79
2023/07/16 10:27:50;;;;;;;22.30;13.15;;;;;;;28.42;84.07;92796.97;4806677;29;20034;-80
2023/07/16 10:30:17;;;;;;;27.10;13.38;;;;;;;28.53;85.68;92801.56;4801954;29;20385;-79
2023/07/16 10:32:43;;;;;;;23.80;13.95;;;;;;;28.53;81.76;92810.41;4800108;29;20034;-78
2023/07/16 10:35:12;;;;;;;24.38;13.85;;;;;;;28.62;81.69;92804.63;4799714;29;20043;-78
2023/07/16 10:37:39;;;;;;;23.83;13.32;;;;;;;28.21;81.40;92802.41;4804591;29;20043;-79
2023/07/16 10:40:09;;;;;;;31.70;15.55;;;;;;;28.44;81.01;92800.03;4800866;29;20034;-78
2023/07/16 10:42:35;;;;;;;22.48;14.48;;;;;;;28.06;83.03;92796.31;4795105;29;20046;-77
2023/07/16 10:45:03;;;;;;;24.15;13.63;;;;;;;28.01;91.78;92789.41;4794422;29;20099;-81
2023/07/16 10:47:32;;;;;;;26.52;13.35;;;;;;;27.95;85.62;92799.03;4797418;29;20055;-79
2023/07/16 10:49:59;;;;;;;21.20;12.35;;;;;;;28.08;90.14;92794.00;4798142;29;20085;-78
2023/07/16 10:52:24;;;;;;;24.98;13.13;;;;;;;27.88;88.83;92795.59;4798888;29;20042;-79
2023/07/16 10:54:54;;;;;;;26.42;14.43;;;;;;;27.56;86.99;92807.91;4806422;29;20043;-78
2023/07/16 10:57:24;;;;;;;32.70;14.18;;;;;;;27.87;92.38;92794.06;4798990;29;20063;-78
2023/07/16 10:59:51;;;;;;;29.70;13.75;;;;;;;28.26;93.48;92799.34;4802617;29;20084;-78
2023/07/16 11:02:17;;;;;;;34.80;14.52;;;;;;;28.46;89.83;92807.69;4801842;29;20129;-77
2023/07/16 11:04:45;;;;;;;28.27;13.95;;;;;;;28.26;88.54;92799.34;4801071;29;20061;-78
2023/07/16 11:07:13;;;;;;;26.15;14.05;;;;;;;27.52;95.98;92796.38;4797064;29;20736;-78
2023/07/16 11:09:44;;;;;;;23.58;13.30;;;;;;;27.28;96.23;92791.78;4797724;29;20508;-78